Weather reports worldwide

Advertisment
Weddell Island, United Kingdom (88883): temperature & dewpoint: 13.01.2019 08:00:00 - 19.01.2019 08:00:00 (FKST)Weddell Island, United Kingdom (88883): wind speed & gusts: 13.01.2019 08:00:00 - 19.01.2019 08:00:00 (FKST)Weddell Island, United Kingdom (88883): wind direction: 13.01.2019 08:00:00 - 19.01.2019 08:00:00 (FKST)Weddell Island, United Kingdom (88883): reduced air pressure: 13.01.2019 08:00:00 - 19.01.2019 08:00:00 (FKST)
Date & Time tt [°C] td [°C] ff [km/h] ff [kn] fx [km/h] fx [kn] dd ppp [hPa]
19.01.2019 08:00:00 12,9 9,8 22 12 - - NW 999,6
19.01.2019 07:00:00 13,1 10,3 22 12 - - NW 1000,1
19.01.2019 06:00:00 10,6 8,9 21 11 - - NW 1001,6
19.01.2019 05:00:00 10,1 8,3 21 11 - - WNW 1002,7
19.01.2019 04:00:00 10,0 7,8 22 12 - - NW 1003,3
19.01.2019 03:00:00 9,8 7,2 24 13 - - WNW 1004,7
19.01.2019 02:00:00 10,4 7,5 24 13 - - NW 1005,9
19.01.2019 01:00:00 9,7 7,4 21 11 - - WNW 1006,8
19.01.2019 00:00:00 8,9 6,6 16 9 - - WNW 1007,6
18.01.2019 23:00:00 9,1 6,8 13 7 - - WNW 1008,4
18.01.2019 22:00:00 8,5 5,2 11 6 - - WNW 1008,8
18.01.2019 21:00:00 9,6 5,3 15 8 - - NW 1009,0
18.01.2019 20:00:00 12,0 6,4 18 10 - - W 1009,7
18.01.2019 19:00:00 12,3 5,9 21 11 - - W 1009,8
18.01.2019 18:00:00 13,1 6,0 24 13 - - W 1010,2
18.01.2019 17:00:00 12,9 6,2 29 16 - - W 1010,2
18.01.2019 16:00:00 14,2 6,8 28 15 - - W 1010,7
18.01.2019 15:00:00 14,5 6,7 29 16 - - W 1010,4
18.01.2019 14:00:00 14,8 6,9 31 17 - - WSW 1010,6
18.01.2019 13:00:00 14,0 6,8 31 17 50 27 W 1010,8
18.01.2019 12:00:00 13,8 7,5 31 17 - - WSW 1010,2
18.01.2019 11:00:00 13,2 7,6 31 17 - - WSW 1010,3
18.01.2019 10:00:00 12,3 7,4 31 17 - - WSW 1010,7
18.01.2019 09:00:00 11,3 7,1 37 20 48 26 WSW 1010,4
18.01.2019 08:00:00 10,7 7,2 34 18 46 25 WSW 1010,1
18.01.2019 07:00:00 9,6 6,5 34 18 - - WSW 1009,7
18.01.2019 06:00:00 9,0 6,3 34 18 50 27 WSW 1009,2
18.01.2019 05:00:00 8,6 5,7 34 18 48 26 WSW 1008,6
18.01.2019 04:00:00 9,0 5,9 29 16 - - WSW 1008,4
18.01.2019 03:00:00 9,4 6,0 31 17 - - WSW 1008,7
18.01.2019 02:00:00 9,5 5,9 34 18 - - WSW 1008,7
18.01.2019 01:00:00 9,9 6,3 34 18 - - WSW 1008,9
18.01.2019 00:00:00 9,8 5,9 26 14 - - W 1009,1
17.01.2019 23:00:00 9,4 5,5 24 13 - - W 1009,5
17.01.2019 22:00:00 9,3 5,5 21 11 - - W 1009,6
17.01.2019 21:00:00 9,9 5,7 22 12 - - W 1009,7
17.01.2019 20:00:00 10,4 5,8 24 13 - - W 1009,9
17.01.2019 19:00:00 10,8 5,8 26 14 - - W 1010,0
17.01.2019 18:00:00 10,9 5,3 24 13 - - W 1010,2
17.01.2019 17:00:00 12,4 5,0 28 15 - - W 1010,5
17.01.2019 16:00:00 13,0 4,8 35 19 52 28 W 1010,9
17.01.2019 15:00:00 11,5 5,1 34 18 57 31 W 1011,2
17.01.2019 14:00:00 11,1 5,6 34 18 50 27 W 1011,6
17.01.2019 13:00:00 10,6 5,0 29 16 - - W 1011,7
17.01.2019 12:00:00 11,5 5,4 31 17 46 25 W 1012,1
17.01.2019 11:00:00 11,6 5,6 31 17 - - W 1012,1
17.01.2019 10:00:00 10,0 5,1 31 17 - - W 1012,4
17.01.2019 09:00:00 9,8 5,4 28 15 - - W 1012,6
17.01.2019 08:00:00 9,2 5,8 18 10 - - NW 1012,8
17.01.2019 07:00:00 7,8 5,2 15 8 - - WNW 1013,4
17.01.2019 06:00:00 4,7 2,5 9 5 - - WSW 1013,4
17.01.2019 05:00:00 3,8 1,5 11 6 - - WSW 1013,5
17.01.2019 04:00:00 4,8 1,8 13 7 - - W 1013,7
17.01.2019 03:00:00 5,5 1,9 18 10 - - WSW 1014,2
17.01.2019 02:00:00 5,6 2,0 16 9 - - SW 1013,8
17.01.2019 01:00:00 5,3 1,7 22 12 - - SW 1013,6
17.01.2019 00:00:00 5,0 2,1 18 10 - - SSW 1013,2
16.01.2019 23:00:00 5,5 2,0 16 9 - - SSW 1013,0
16.01.2019 22:00:00 5,6 2,0 21 11 - - SSW 1012,3
16.01.2019 21:00:00 4,6 1,0 24 13 - - SSW 1011,8
16.01.2019 20:00:00 6,0 1,6 16 9 - - SSW 1010,9
16.01.2019 19:00:00 6,6 1,1 22 12 - - SSW 1010,4
16.01.2019 18:00:00 7,3 1,1 28 15 - - SSW 1009,4
16.01.2019 17:00:00 6,7 1,0 34 18 46 25 SW 1009,0
16.01.2019 16:00:00 8,3 0,4 28 15 - - SSW 1007,8
16.01.2019 15:00:00 8,1 -1,0 35 19 54 29 S 1006,9
16.01.2019 14:00:00 6,0 1,9 28 15 - - SSW 1006,6
16.01.2019 13:00:00 9,9 0,8 28 15 - - SSW 1005,4
16.01.2019 12:00:00 8,9 -0,1 26 14 - - SSW 1004,5
16.01.2019 11:00:00 7,9 1,8 29 16 48 26 SSW 1003,4
16.01.2019 10:00:00 9,1 0,4 29 16 - - S 1002,2
16.01.2019 09:00:00 6,7 -0,1 26 14 - - S 1001,6
16.01.2019 08:00:00 5,5 1,5 26 14 - - SSW 1000,3
16.01.2019 07:00:00 5,9 2,7 28 15 - - S 999,1
16.01.2019 06:00:00 6,0 2,8 26 14 - - S 997,8
16.01.2019 05:00:00 7,1 4,3 26 14 - - S 996,6
16.01.2019 04:00:00 8,1 5,8 22 12 - - SSW 995,2
16.01.2019 03:00:00 9,3 7,0 24 13 - - WSW 994,7
16.01.2019 02:00:00 8,9 6,3 21 11 - - W 994,2
16.01.2019 01:00:00 9,0 5,9 26 14 - - W 994,0
16.01.2019 00:00:00 9,6 6,3 29 16 - - W 993,4
15.01.2019 23:00:00 9,3 6,1 28 15 - - W 993,0
15.01.2019 22:00:00 9,0 5,4 26 14 - - W 992,6
15.01.2019 21:00:00 9,6 5,6 26 14 - - W 992,0
15.01.2019 20:00:00 11,0 6,1 34 18 - - W 991,0
15.01.2019 19:00:00 13,1 6,8 34 18 48 26 W 990,2
15.01.2019 18:00:00 14,3 9,0 28 15 - - W 989,1
15.01.2019 17:00:00 14,6 9,0 28 15 - - W 988,7
15.01.2019 16:00:00 15,1 10,5 28 15 - - WNW 988,9
15.01.2019 15:00:00 12,3 10,7 26 14 - - NNW 989,5
15.01.2019 14:00:00 12,3 10,7 26 14 - - N 990,6
15.01.2019 13:00:00 11,3 9,0 18 10 - - N 992,0
15.01.2019 12:00:00 10,8 8,7 28 15 - - N 994,0
15.01.2019 11:00:00 12,2 7,5 29 16 - - NNW 995,1
15.01.2019 10:00:00 13,5 6,9 16 9 - - NNE 995,8
15.01.2019 09:00:00 12,5 7,3 11 6 - - NNE 997,3
15.01.2019 08:00:00 11,3 7,2 4 2 - - NNE 998,5
15.01.2019 07:00:00 10,3 7,0 5 3 - - NW 999,8
15.01.2019 06:00:00 8,7 5,8 11 6 - - NW 1000,8
15.01.2019 05:00:00 9,2 5,6 13 7 - - NNW 1001,4
15.01.2019 04:00:00 8,4 5,6 9 5 - - NNW 1001,8
15.01.2019 03:00:00 9,0 5,7 15 8 - - NW 1002,4
15.01.2019 02:00:00 8,5 5,3 8 4 - - NW 1003,0
15.01.2019 01:00:00 8,6 5,9 11 6 - - NW 1003,4
15.01.2019 00:00:00 7,2 4,9 11 6 - - WNW 1004,2
14.01.2019 23:00:00 6,0 2,6 5 3 - - N 1004,6
14.01.2019 22:00:00 7,3 3,3 4 2 - - NNW 1004,7
14.01.2019 21:00:00 10,7 3,9 18 10 - - W 1004,6
14.01.2019 20:00:00 11,9 3,7 26 14 - - W 1004,6
14.01.2019 19:00:00 13,3 5,3 24 13 - - W 1004,6
14.01.2019 18:00:00 13,9 5,4 26 14 - - W 1005,1
14.01.2019 17:00:00 14,1 5,2 31 17 - - W 1004,9
14.01.2019 16:00:00 15,1 5,5 31 17 - - WNW 1004,6
14.01.2019 15:00:00 15,0 5,3 31 17 - - W 1005,0
14.01.2019 14:00:00 14,8 6,2 29 16 - - WNW 1005,3
14.01.2019 13:00:00 14,7 6,0 26 14 - - W 1005,6
14.01.2019 12:00:00 13,4 5,7 22 12 - - W 1005,7
14.01.2019 11:00:00 12,5 5,2 28 15 - - W 1005,8
14.01.2019 10:00:00 12,7 6,4 21 11 - - W 1005,7
14.01.2019 09:00:00 10,5 5,4 24 13 - - W 1006,1
14.01.2019 08:00:00 10,2 5,5 22 12 - - W 1005,8
14.01.2019 07:00:00 9,7 5,5 22 12 - - W 1005,6
14.01.2019 06:00:00 9,2 5,0 22 12 - - WSW 1005,1
14.01.2019 05:00:00 9,6 5,3 26 14 - - W 1004,9
14.01.2019 04:00:00 9,9 5,2 28 15 46 25 W 1004,9
14.01.2019 03:00:00 9,9 5,1 29 16 - - W 1005,5
14.01.2019 02:00:00 9,1 5,3 22 12 - - W 1005,4
14.01.2019 01:00:00 8,8 5,5 26 14 - - W 1005,6
14.01.2019 00:00:00 9,6 6,2 28 15 - - W 1005,6
13.01.2019 23:00:00 9,2 5,5 26 14 - - W 1005,4
13.01.2019 22:00:00 9,6 5,0 26 14 - - W 1005,5
13.01.2019 21:00:00 9,9 5,4 28 15 - - W 1005,4
13.01.2019 20:00:00 10,1 5,6 35 19 52 28 W 1005,9
13.01.2019 19:00:00 10,6 5,4 37 20 52 28 W 1006,0
13.01.2019 18:00:00 12,0 6,0 37 20 52 28 W 1005,8
13.01.2019 17:00:00 10,9 5,8 37 20 52 28 W 1006,0
13.01.2019 16:00:00 11,4 5,6 37 20 52 28 W 1005,9
13.01.2019 15:00:00 11,7 5,3 37 20 55 30 W 1005,6
13.01.2019 14:00:00 12,1 5,6 39 21 54 29 W 1005,5
13.01.2019 13:00:00 11,0 5,8 34 18 48 26 W 1005,9
13.01.2019 12:00:00 10,9 5,6 39 21 52 28 W 1005,6
13.01.2019 11:00:00 9,2 6,1 34 18 50 27 WSW 1005,0
13.01.2019 10:00:00 8,9 6,3 37 20 54 29 W 1004,4
13.01.2019 09:00:00 8,5 4,6 39 21 54 29 W 1004,3
13.01.2019 08:00:00 8,8 4,8 35 19 48 26 W 1003,9

tt = temperature
td = dewpoint
ff = wind speed
fx = gusts
dd = wind direction
ppp = reduced air pressure

Next stations